sensor_id;sensor_type;location;lat;lon;timestamp;temperature;humidity
71082;SHT31;58740;50.672;18.690;2023-02-15T00:00:10;4.25;74.42
71082;SHT31;58740;50.672;18.690;2023-02-15T00:02:59;4.23;74.45
71082;SHT31;58740;50.672;18.690;2023-02-15T00:05:26;4.23;74.82
71082;SHT31;58740;50.672;18.690;2023-02-15T00:07:56;4.22;74.64
71082;SHT31;58740;50.672;18.690;2023-02-15T00:10:24;4.20;74.85
71082;SHT31;58740;50.672;18.690;2023-02-15T00:12:52;4.18;75.05
71082;SHT31;58740;50.672;18.690;2023-02-15T00:15:19;4.17;75.11
71082;SHT31;58740;50.672;18.690;2023-02-15T00:17:47;4.16;75.16
71082;SHT31;58740;50.672;18.690;2023-02-15T00:20:15;4.16;75.27
71082;SHT31;58740;50.672;18.690;2023-02-15T00:22:43;4.17;75.37
71082;SHT31;58740;50.672;18.690;2023-02-15T00:25:11;4.18;75.36
71082;SHT31;58740;50.672;18.690;2023-02-15T00:27:38;4.18;75.23
71082;SHT31;58740;50.672;18.690;2023-02-15T00:30:06;4.17;75.21
71082;SHT31;58740;50.672;18.690;2023-02-15T00:32:35;4.17;75.36
71082;SHT31;58740;50.672;18.690;2023-02-15T00:35:03;4.16;75.48
71082;SHT31;58740;50.672;18.690;2023-02-15T00:37:31;4.14;75.41
71082;SHT31;58740;50.672;18.690;2023-02-15T00:39:59;4.10;75.51
71082;SHT31;58740;50.672;18.690;2023-02-15T00:42:26;4.08;75.36
71082;SHT31;58740;50.672;18.690;2023-02-15T00:44:54;4.07;75.44
71082;SHT31;58740;50.672;18.690;2023-02-15T00:47:22;4.03;75.18
71082;SHT31;58740;50.672;18.690;2023-02-15T00:49:51;3.99;75.05
71082;SHT31;58740;50.672;18.690;2023-02-15T00:52:19;3.97;75.16
71082;SHT31;58740;50.672;18.690;2023-02-15T00:54:47;3.98;75.23
71082;SHT31;58740;50.672;18.690;2023-02-15T00:57:14;3.94;74.89
71082;SHT31;58740;50.672;18.690;2023-02-15T00:59:42;3.89;75.10
71082;SHT31;58740;50.672;18.690;2023-02-15T01:02:10;3.88;75.06
71082;SHT31;58740;50.672;18.690;2023-02-15T01:04:38;3.85;75.06
71082;SHT31;58740;50.672;18.690;2023-02-15T01:07:05;3.81;75.10
71082;SHT31;58740;50.672;18.690;2023-02-15T01:09:33;3.79;75.16
71082;SHT31;58740;50.672;18.690;2023-02-15T01:12:01;3.79;75.17
71082;SHT31;58740;50.672;18.690;2023-02-15T01:14:29;3.80;75.28
71082;SHT31;58740;50.672;18.690;2023-02-15T01:16:57;3.83;75.43
71082;SHT31;58740;50.672;18.690;2023-02-15T01:19:24;3.83;75.45
71082;SHT31;58740;50.672;18.690;2023-02-15T01:21:52;3.82;75.37
71082;SHT31;58740;50.672;18.690;2023-02-15T01:24:20;3.81;75.37
71082;SHT31;58740;50.672;18.690;2023-02-15T01:26:48;3.78;75.40
71082;SHT31;58740;50.672;18.690;2023-02-15T01:29:16;3.74;75.32
71082;SHT31;58740;50.672;18.690;2023-02-15T01:31:43;3.70;75.42
71082;SHT31;58740;50.672;18.690;2023-02-15T01:34:11;3.68;75.52
71082;SHT31;58740;50.672;18.690;2023-02-15T01:36:39;3.67;75.50
71082;SHT31;58740;50.672;18.690;2023-02-15T01:39:07;3.67;75.65
71082;SHT31;58740;50.672;18.690;2023-02-15T01:41:35;3.67;75.48
71082;SHT31;58740;50.672;18.690;2023-02-15T01:44:40;3.64;75.37
71082;SHT31;58740;50.672;18.690;2023-02-15T01:47:10;3.59;75.42
71082;SHT31;58740;50.672;18.690;2023-02-15T01:49:48;3.57;75.61
71082;SHT31;58740;50.672;18.690;2023-02-15T01:52:27;3.54;75.63
71082;SHT31;58740;50.672;18.690;2023-02-15T01:54:56;3.52;75.59
71082;SHT31;58740;50.672;18.690;2023-02-15T01:57:25;3.51;75.69
71082;SHT31;58740;50.672;18.690;2023-02-15T01:59:56;3.53;75.77
71082;SHT31;58740;50.672;18.690;2023-02-15T02:02:29;3.54;75.78
71082;SHT31;58740;50.672;18.690;2023-02-15T02:04:58;3.54;75.79
71082;SHT31;58740;50.672;18.690;2023-02-15T02:07:38;3.53;75.85
71082;SHT31;58740;50.672;18.690;2023-02-15T02:10:15;3.52;75.95
71082;SHT31;58740;50.672;18.690;2023-02-15T02:12:46;3.52;75.96
71082;SHT31;58740;50.672;18.690;2023-02-15T02:15:17;3.51;75.98
71082;SHT31;58740;50.672;18.690;2023-02-15T02:20:51;3.50;76.20
71082;SHT31;58740;50.672;18.690;2023-02-15T02:23:38;3.55;76.21
71082;SHT31;58740;50.672;18.690;2023-02-15T02:27:22;3.55;76.04
71082;SHT31;58740;50.672;18.690;2023-02-15T02:38:50;3.39;76.30
71082;SHT31;58740;50.672;18.690;2023-02-15T02:44:17;3.32;76.55
71082;SHT31;58740;50.672;18.690;2023-02-15T02:46:53;3.32;76.61
71082;SHT31;58740;50.672;18.690;2023-02-15T02:49:37;3.31;76.65
71082;SHT31;58740;50.672;18.690;2023-02-15T02:52:33;3.33;76.70
71082;SHT31;58740;50.672;18.690;2023-02-15T02:55:09;3.34;76.74
71082;SHT31;58740;50.672;18.690;2023-02-15T02:58:20;3.35;76.82
71082;SHT31;58740;50.672;18.690;2023-02-15T03:00:57;3.35;76.96
71082;SHT31;58740;50.672;18.690;2023-02-15T03:03:36;3.36;76.78
71082;SHT31;58740;50.672;18.690;2023-02-15T03:06:29;3.33;76.71
71082;SHT31;58740;50.672;18.690;2023-02-15T03:09:15;3.29;76.77
71082;SHT31;58740;50.672;18.690;2023-02-15T03:12:01;3.30;76.77
71082;SHT31;58740;50.672;18.690;2023-02-15T03:14:32;3.28;76.68
71082;SHT31;58740;50.672;18.690;2023-02-15T03:17:01;3.27;76.78
71082;SHT31;58740;50.672;18.690;2023-02-15T03:19:33;3.28;76.81
71082;SHT31;58740;50.672;18.690;2023-02-15T03:22:05;3.26;76.81
71082;SHT31;58740;50.672;18.690;2023-02-15T03:24:59;3.25;76.86
71082;SHT31;58740;50.672;18.690;2023-02-15T03:27:54;3.21;76.91
71082;SHT31;58740;50.672;18.690;2023-02-15T03:30:27;3.18;76.97
71082;SHT31;58740;50.672;18.690;2023-02-15T03:32:58;3.18;77.01
71082;SHT31;58740;50.672;18.690;2023-02-15T03:35:32;3.20;77.10
71082;SHT31;58740;50.672;18.690;2023-02-15T03:38:11;3.24;77.02
71082;SHT31;58740;50.672;18.690;2023-02-15T03:40:46;3.26;77.04
71082;SHT31;58740;50.672;18.690;2023-02-15T03:49:24;3.16;77.07
71082;SHT31;58740;50.672;18.690;2023-02-15T03:51:58;3.13;77.22
71082;SHT31;58740;50.672;18.690;2023-02-15T03:54:31;3.12;77.22
71082;SHT31;58740;50.672;18.690;2023-02-15T03:57:18;3.13;77.36
71082;SHT31;58740;50.672;18.690;2023-02-15T04:00:13;3.17;77.33
71082;SHT31;58740;50.672;18.690;2023-02-15T04:03:12;3.14;77.27
71082;SHT31;58740;50.672;18.690;2023-02-15T04:05:53;3.10;77.42
71082;SHT31;58740;50.672;18.690;2023-02-15T04:08:21;3.10;77.51
71082;SHT31;58740;50.672;18.690;2023-02-15T04:11:09;3.10;77.58
71082;SHT31;58740;50.672;18.690;2023-02-15T04:13:37;3.12;77.56
71082;SHT31;58740;50.672;18.690;2023-02-15T04:16:04;3.12;77.43
71082;SHT31;58740;50.672;18.690;2023-02-15T04:18:35;3.09;77.44
71082;SHT31;58740;50.672;18.690;2023-02-15T04:21:25;3.10;77.44
71082;SHT31;58740;50.672;18.690;2023-02-15T04:24:15;3.10;77.49
71082;SHT31;58740;50.672;18.690;2023-02-15T04:27:02;3.09;77.48
71082;SHT31;58740;50.672;18.690;2023-02-15T04:29:31;3.05;77.56
71082;SHT31;58740;50.672;18.690;2023-02-15T04:32:00;3.05;77.69
71082;SHT31;58740;50.672;18.690;2023-02-15T04:34:29;3.08;77.69
71082;SHT31;58740;50.672;18.690;2023-02-15T04:36:57;3.09;77.66
71082;SHT31;58740;50.672;18.690;2023-02-15T04:39:25;3.10;77.59
71082;SHT31;58740;50.672;18.690;2023-02-15T04:41:52;3.11;77.62
71082;SHT31;58740;50.672;18.690;2023-02-15T04:44:20;3.12;77.62
71082;SHT31;58740;50.672;18.690;2023-02-15T04:46:48;3.09;77.58
71082;SHT31;58740;50.672;18.690;2023-02-15T04:49:16;3.04;77.68
71082;SHT31;58740;50.672;18.690;2023-02-15T04:51:44;3.02;77.79
71082;SHT31;58740;50.672;18.690;2023-02-15T04:54:11;2.99;77.86
71082;SHT31;58740;50.672;18.690;2023-02-15T04:56:39;2.98;77.88
71082;SHT31;58740;50.672;18.690;2023-02-15T04:59:09;3.00;77.96
71082;SHT31;58740;50.672;18.690;2023-02-15T05:01:38;2.99;77.88
71082;SHT31;58740;50.672;18.690;2023-02-15T05:04:06;2.99;77.88
71082;SHT31;58740;50.672;18.690;2023-02-15T05:06:34;2.96;77.92
71082;SHT31;58740;50.672;18.690;2023-02-15T05:09:02;2.94;78.05
71082;SHT31;58740;50.672;18.690;2023-02-15T05:11:30;2.93;78.12
71082;SHT31;58740;50.672;18.690;2023-02-15T05:13:58;2.92;78.11
71082;SHT31;58740;50.672;18.690;2023-02-15T05:16:26;2.91;78.21
71082;SHT31;58740;50.672;18.690;2023-02-15T05:18:55;2.90;78.28
71082;SHT31;58740;50.672;18.690;2023-02-15T05:21:23;2.92;78.32
71082;SHT31;58740;50.672;18.690;2023-02-15T05:23:51;2.96;78.29
71082;SHT31;58740;50.672;18.690;2023-02-15T05:26:20;2.98;78.20
71082;SHT31;58740;50.672;18.690;2023-02-15T05:29:10;3.00;78.35
71082;SHT31;58740;50.672;18.690;2023-02-15T05:31:38;3.00;78.22
71082;SHT31;58740;50.672;18.690;2023-02-15T05:34:06;2.98;78.21
71082;SHT31;58740;50.672;18.690;2023-02-15T05:36:34;2.95;78.21
71082;SHT31;58740;50.672;18.690;2023-02-15T05:39:02;2.90;78.30
71082;SHT31;58740;50.672;18.690;2023-02-15T05:41:31;2.88;78.40
71082;SHT31;58740;50.672;18.690;2023-02-15T05:43:59;2.85;78.50
71082;SHT31;58740;50.672;18.690;2023-02-15T05:46:26;2.82;78.53
71082;SHT31;58740;50.672;18.690;2023-02-15T05:48:54;2.79;78.57
71082;SHT31;58740;50.672;18.690;2023-02-15T05:51:22;2.79;78.62
71082;SHT31;58740;50.672;18.690;2023-02-15T05:53:50;2.79;78.74
71082;SHT31;58740;50.672;18.690;2023-02-15T05:56:17;2.75;78.75
71082;SHT31;58740;50.672;18.690;2023-02-15T05:58:45;2.74;78.89
71082;SHT31;58740;50.672;18.690;2023-02-15T06:01:17;2.71;78.89
71082;SHT31;58740;50.672;18.690;2023-02-15T06:03:48;2.72;78.95
71082;SHT31;58740;50.672;18.690;2023-02-15T06:06:16;2.74;78.94
71082;SHT31;58740;50.672;18.690;2023-02-15T06:08:44;2.76;78.91
71082;SHT31;58740;50.672;18.690;2023-02-15T06:11:12;2.81;78.94
71082;SHT31;58740;50.672;18.690;2023-02-15T06:13:39;2.81;78.91
71082;SHT31;58740;50.672;18.690;2023-02-15T06:16:07;2.77;78.99
71082;SHT31;58740;50.672;18.690;2023-02-15T06:18:35;2.75;79.02
71082;SHT31;58740;50.672;18.690;2023-02-15T06:21:03;2.76;79.09
71082;SHT31;58740;50.672;18.690;2023-02-15T06:23:30;2.76;79.02
71082;SHT31;58740;50.672;18.690;2023-02-15T06:25:58;2.77;79.07
71082;SHT31;58740;50.672;18.690;2023-02-15T06:28:26;2.74;79.13
71082;SHT31;58740;50.672;18.690;2023-02-15T06:30:54;2.74;79.17
71082;SHT31;58740;50.672;18.690;2023-02-15T06:33:22;2.67;79.23
71082;SHT31;58740;50.672;18.690;2023-02-15T06:35:50;2.63;79.40
71082;SHT31;58740;50.672;18.690;2023-02-15T06:38:18;2.61;79.60
71082;SHT31;58740;50.672;18.690;2023-02-15T06:40:46;2.58;79.70
71082;SHT31;58740;50.672;18.690;2023-02-15T06:43:14;2.58;79.65
71082;SHT31;58740;50.672;18.690;2023-02-15T06:45:42;2.61;79.62
71082;SHT31;58740;50.672;18.690;2023-02-15T06:48:10;2.66;79.60
71082;SHT31;58740;50.672;18.690;2023-02-15T06:50:38;2.72;79.58
71082;SHT31;58740;50.672;18.690;2023-02-15T06:53:06;2.72;79.50
71082;SHT31;58740;50.672;18.690;2023-02-15T06:55:34;2.71;79.54
71082;SHT31;58740;50.672;18.690;2023-02-15T06:58:02;2.69;79.62
71082;SHT31;58740;50.672;18.690;2023-02-15T07:00:30;2.65;79.70
71082;SHT31;58740;50.672;18.690;2023-02-15T07:02:58;2.62;79.83
71082;SHT31;58740;50.672;18.690;2023-02-15T07:05:26;2.58;79.94
71082;SHT31;58740;50.672;18.690;2023-02-15T07:07:58;2.59;79.97
71082;SHT31;58740;50.672;18.690;2023-02-15T07:10:28;2.59;79.98
71082;SHT31;58740;50.672;18.690;2023-02-15T07:12:56;2.62;80.02
71082;SHT31;58740;50.672;18.690;2023-02-15T07:15:24;2.63;79.98
71082;SHT31;58740;50.672;18.690;2023-02-15T07:17:51;2.58;80.06
71082;SHT31;58740;50.672;18.690;2023-02-15T07:20:20;2.55;80.17
71082;SHT31;58740;50.672;18.690;2023-02-15T07:22:49;2.53;80.22
71082;SHT31;58740;50.672;18.690;2023-02-15T07:25:18;2.51;80.32
71082;SHT31;58740;50.672;18.690;2023-02-15T07:27:46;2.48;80.39
71082;SHT31;58740;50.672;18.690;2023-02-15T07:30:15;2.47;80.52
71082;SHT31;58740;50.672;18.690;2023-02-15T07:32:44;2.46;80.55
71082;SHT31;58740;50.672;18.690;2023-02-15T07:35:32;2.49;80.48
71082;SHT31;58740;50.672;18.690;2023-02-15T07:38:01;2.49;80.49
71082;SHT31;58740;50.672;18.690;2023-02-15T07:40:29;2.49;80.57
71082;SHT31;58740;50.672;18.690;2023-02-15T07:42:57;2.51;80.60
71082;SHT31;58740;50.672;18.690;2023-02-15T07:45:26;2.48;80.67
71082;SHT31;58740;50.672;18.690;2023-02-15T07:47:54;2.46;80.81
71082;SHT31;58740;50.672;18.690;2023-02-15T07:50:22;2.47;80.88
71082;SHT31;58740;50.672;18.690;2023-02-15T07:52:50;2.46;80.84
71082;SHT31;58740;50.672;18.690;2023-02-15T07:55:18;2.41;80.85
71082;SHT31;58740;50.672;18.690;2023-02-15T07:57:48;2.38;80.88
71082;SHT31;58740;50.672;18.690;2023-02-15T08:00:18;2.33;80.91
71082;SHT31;58740;50.672;18.690;2023-02-15T08:02:52;2.34;80.90
71082;SHT31;58740;50.672;18.690;2023-02-15T08:05:55;2.36;80.92
71082;SHT31;58740;50.672;18.690;2023-02-15T08:08:26;2.38;80.90
71082;SHT31;58740;50.672;18.690;2023-02-15T08:14:04;2.34;80.91
71082;SHT31;58740;50.672;18.690;2023-02-15T08:16:44;2.34;80.98
71082;SHT31;58740;50.672;18.690;2023-02-15T08:19:25;2.33;80.95
71082;SHT31;58740;50.672;18.690;2023-02-15T08:21:59;2.33;81.02
71082;SHT31;58740;50.672;18.690;2023-02-15T08:24:32;2.36;80.97
71082;SHT31;58740;50.672;18.690;2023-02-15T08:27:05;2.39;80.95
71082;SHT31;58740;50.672;18.690;2023-02-15T08:29:36;2.40;80.90
71082;SHT31;58740;50.672;18.690;2023-02-15T08:32:07;2.40;80.99
71082;SHT31;58740;50.672;18.690;2023-02-15T08:34:38;2.41;81.07
71082;SHT31;58740;50.672;18.690;2023-02-15T08:37:09;2.44;81.03
71082;SHT31;58740;50.672;18.690;2023-02-15T08:39:36;2.46;81.05
71082;SHT31;58740;50.672;18.690;2023-02-15T08:42:04;2.49;81.03
71082;SHT31;58740;50.672;18.690;2023-02-15T08:44:32;2.54;80.97
71082;SHT31;58740;50.672;18.690;2023-02-15T08:47:00;2.59;80.76
71082;SHT31;58740;50.672;18.690;2023-02-15T08:49:31;2.64;80.62
71082;SHT31;58740;50.672;18.690;2023-02-15T08:51:59;2.68;80.50
71082;SHT31;58740;50.672;18.690;2023-02-15T08:54:27;2.70;80.43
71082;SHT31;58740;50.672;18.690;2023-02-15T08:56:55;2.73;80.29
71082;SHT31;58740;50.672;18.690;2023-02-15T08:59:23;2.72;80.11
71082;SHT31;58740;50.672;18.690;2023-02-15T09:01:51;2.74;80.07
71082;SHT31;58740;50.672;18.690;2023-02-15T09:04:20;2.79;80.07
71082;SHT31;58740;50.672;18.690;2023-02-15T09:06:49;2.84;79.93
71082;SHT31;58740;50.672;18.690;2023-02-15T09:09:18;2.81;79.77
71082;SHT31;58740;50.672;18.690;2023-02-15T09:11:48;2.82;79.77
71082;SHT31;58740;50.672;18.690;2023-02-15T09:14:25;2.85;79.76
71082;SHT31;58740;50.672;18.690;2023-02-15T09:16:54;2.87;79.78
71082;SHT31;58740;50.672;18.690;2023-02-15T09:19:23;2.90;79.73
71082;SHT31;58740;50.672;18.690;2023-02-15T09:21:51;2.94;79.61
71082;SHT31;58740;50.672;18.690;2023-02-15T09:24:19;3.02;79.65
71082;SHT31;58740;50.672;18.690;2023-02-15T09:26:47;3.12;79.48
71082;SHT31;58740;50.672;18.690;2023-02-15T09:29:17;3.19;79.29
71082;SHT31;58740;50.672;18.690;2023-02-15T09:31:47;3.24;79.06
71082;SHT31;58740;50.672;18.690;2023-02-15T09:34:19;3.30;79.17
71082;SHT31;58740;50.672;18.690;2023-02-15T09:36:49;3.38;78.89
71082;SHT31;58740;50.672;18.690;2023-02-15T09:39:19;3.46;78.69
71082;SHT31;58740;50.672;18.690;2023-02-15T09:50:20;3.83;78.05
71082;SHT31;58740;50.672;18.690;2023-02-15T09:56:24;3.99;77.82
71082;SHT31;58740;50.672;18.690;2023-02-15T10:02:20;4.05;77.17
71082;SHT31;58740;50.672;18.690;2023-02-15T10:12:11;4.37;76.32
71082;SHT31;58740;50.672;18.690;2023-02-15T10:18:34;4.53;75.42
71082;SHT31;58740;50.672;18.690;2023-02-15T10:24:26;4.67;75.59
71082;SHT31;58740;50.672;18.690;2023-02-15T10:27:24;4.75;74.66
71082;SHT31;58740;50.672;18.690;2023-02-15T10:30:09;4.82;74.34
71082;SHT31;58740;50.672;18.690;2023-02-15T10:32:45;4.91;74.20
71082;SHT31;58740;50.672;18.690;2023-02-15T10:41:55;5.19;73.60
71082;SHT31;58740;50.672;18.690;2023-02-15T10:50:22;5.48;73.32
71082;SHT31;58740;50.672;18.690;2023-02-15T10:52:59;5.59;72.74
71082;SHT31;58740;50.672;18.690;2023-02-15T10:59:10;5.79;71.92
71082;SHT31;58740;50.672;18.690;2023-02-15T11:07:52;6.05;70.32
71082;SHT31;58740;50.672;18.690;2023-02-15T11:10:30;6.13;70.79
71082;SHT31;58740;50.672;18.690;2023-02-15T11:13:10;6.23;70.72
71082;SHT31;58740;50.672;18.690;2023-02-15T11:18:28;6.39;70.35
71082;SHT31;58740;50.672;18.690;2023-02-15T11:24:12;6.52;68.87
71082;SHT31;58740;50.672;18.690;2023-02-15T11:26:49;6.58;68.68
71082;SHT31;58740;50.672;18.690;2023-02-15T11:29:37;6.61;67.23
71082;SHT31;58740;50.672;18.690;2023-02-15T11:32:17;6.62;68.29
71082;SHT31;58740;50.672;18.690;2023-02-15T11:42:56;6.76;67.53
71082;SHT31;58740;50.672;18.690;2023-02-15T11:45:34;6.79;66.60
71082;SHT31;58740;50.672;18.690;2023-02-15T11:48:08;6.84;65.35
71082;SHT31;58740;50.672;18.690;2023-02-15T11:50:39;6.87;66.50
71082;SHT31;58740;50.672;18.690;2023-02-15T11:53:13;6.90;67.39
71082;SHT31;58740;50.672;18.690;2023-02-15T11:55:54;6.91;66.67
71082;SHT31;58740;50.672;18.690;2023-02-15T12:04:07;7.05;65.00
71082;SHT31;58740;50.672;18.690;2023-02-15T12:06:56;7.11;64.71
71082;SHT31;58740;50.672;18.690;2023-02-15T12:09:41;7.15;66.22
71082;SHT31;58740;50.672;18.690;2023-02-15T12:14:53;7.21;64.86
71082;SHT31;58740;50.672;18.690;2023-02-15T12:17:50;7.24;64.98
71082;SHT31;58740;50.672;18.690;2023-02-15T12:20:25;7.25;66.01
71082;SHT31;58740;50.672;18.690;2023-02-15T12:23:02;7.28;64.63
71082;SHT31;58740;50.672;18.690;2023-02-15T12:25:43;7.30;63.72
71082;SHT31;58740;50.672;18.690;2023-02-15T12:28:34;7.33;64.34
71082;SHT31;58740;50.672;18.690;2023-02-15T12:33:48;7.39;64.78
71082;SHT31;58740;50.672;18.690;2023-02-15T12:36:22;7.45;64.06
71082;SHT31;58740;50.672;18.690;2023-02-15T12:41:45;7.50;63.74
71082;SHT31;58740;50.672;18.690;2023-02-15T12:44:27;7.54;62.06
71082;SHT31;58740;50.672;18.690;2023-02-15T12:49:35;7.56;62.56
71082;SHT31;58740;50.672;18.690;2023-02-15T12:52:25;7.56;63.00
71082;SHT31;58740;50.672;18.690;2023-02-15T12:54:53;7.57;62.24
71082;SHT31;58740;50.672;18.690;2023-02-15T12:57:22;7.59;62.01
71082;SHT31;58740;50.672;18.690;2023-02-15T13:00:00;7.59;61.46
71082;SHT31;58740;50.672;18.690;2023-02-15T13:02:53;7.60;62.06
71082;SHT31;58740;50.672;18.690;2023-02-15T13:05:39;7.61;61.98
71082;SHT31;58740;50.672;18.690;2023-02-15T13:08:15;7.62;62.53
71082;SHT31;58740;50.672;18.690;2023-02-15T13:16:33;7.76;60.95
71082;SHT31;58740;50.672;18.690;2023-02-15T13:19:09;7.82;60.34
71082;SHT31;58740;50.672;18.690;2023-02-15T13:21:50;7.86;59.84
71082;SHT31;58740;50.672;18.690;2023-02-15T13:24:24;7.88;59.77
71082;SHT31;58740;50.672;18.690;2023-02-15T13:26:58;7.89;59.76
71082;SHT31;58740;50.672;18.690;2023-02-15T13:29:45;7.89;59.09
71082;SHT31;58740;50.672;18.690;2023-02-15T13:32:37;7.89;60.07
71082;SHT31;58740;50.672;18.690;2023-02-15T13:35:15;7.91;60.23
71082;SHT31;58740;50.672;18.690;2023-02-15T13:40:48;7.94;58.81
71082;SHT31;58740;50.672;18.690;2023-02-15T13:49:39;7.91;58.94
71082;SHT31;58740;50.672;18.690;2023-02-15T13:52:20;7.89;59.44
71082;SHT31;58740;50.672;18.690;2023-02-15T14:04:09;7.75;59.70
71082;SHT31;58740;50.672;18.690;2023-02-15T14:07:13;7.79;59.73
71082;SHT31;58740;50.672;18.690;2023-02-15T14:13:36;7.85;57.46
71082;SHT31;58740;50.672;18.690;2023-02-15T14:16:36;7.87;57.53
71082;SHT31;58740;50.672;18.690;2023-02-15T14:19:41;7.89;57.07
71082;SHT31;58740;50.672;18.690;2023-02-15T14:28:13;7.86;57.33
71082;SHT31;58740;50.672;18.690;2023-02-15T14:30:49;7.86;57.41
71082;SHT31;58740;50.672;18.690;2023-02-15T14:36:07;7.83;58.44
71082;SHT31;58740;50.672;18.690;2023-02-15T14:38:56;7.79;58.66
71082;SHT31;58740;50.672;18.690;2023-02-15T14:45:06;7.72;58.52
71082;SHT31;58740;50.672;18.690;2023-02-15T14:48:24;7.74;58.63
71082;SHT31;58740;50.672;18.690;2023-02-15T14:50:56;7.72;58.65
71082;SHT31;58740;50.672;18.690;2023-02-15T14:53:35;7.72;59.18
71082;SHT31;58740;50.672;18.690;2023-02-15T15:04:12;7.64;59.40
71082;SHT31;58740;50.672;18.690;2023-02-15T15:07:00;7.63;59.84
71082;SHT31;58740;50.672;18.690;2023-02-15T15:09:59;7.59;60.17
71082;SHT31;58740;50.672;18.690;2023-02-15T15:15:05;7.50;60.90
71082;SHT31;58740;50.672;18.690;2023-02-15T15:20:12;7.40;60.52
71082;SHT31;58740;50.672;18.690;2023-02-15T15:45:44;7.03;62.40
71082;SHT31;58740;50.672;18.690;2023-02-15T15:48:37;6.98;62.40
71082;SHT31;58740;50.672;18.690;2023-02-15T15:53:47;6.91;62.87
71082;SHT31;58740;50.672;18.690;2023-02-15T15:56:25;6.84;63.04
71082;SHT31;58740;50.672;18.690;2023-02-15T15:59:04;6.80;63.13
71082;SHT31;58740;50.672;18.690;2023-02-15T16:01:46;6.77;63.48
71082;SHT31;58740;50.672;18.690;2023-02-15T16:04:26;6.74;63.58
71082;SHT31;58740;50.672;18.690;2023-02-15T16:07:05;6.75;63.67
71082;SHT31;58740;50.672;18.690;2023-02-15T16:10:00;6.75;63.70
71082;SHT31;58740;50.672;18.690;2023-02-15T16:12:46;6.75;63.84
71082;SHT31;58740;50.672;18.690;2023-02-15T16:15:19;6.73;64.08
71082;SHT31;58740;50.672;18.690;2023-02-15T16:17:55;6.70;64.18
71082;SHT31;58740;50.672;18.690;2023-02-15T16:20:30;6.66;64.26
71082;SHT31;58740;50.672;18.690;2023-02-15T16:23:26;6.59;64.30
71082;SHT31;58740;50.672;18.690;2023-02-15T16:28:51;6.47;64.85
71082;SHT31;58740;50.672;18.690;2023-02-15T16:31:22;6.38;64.84
71082;SHT31;58740;50.672;18.690;2023-02-15T16:33:54;6.29;65.23
71082;SHT31;58740;50.672;18.690;2023-02-15T16:36:27;6.19;65.50
71082;SHT31;58740;50.672;18.690;2023-02-15T16:41:24;6.02;65.73
71082;SHT31;58740;50.672;18.690;2023-02-15T16:43:59;5.93;65.85
71082;SHT31;58740;50.672;18.690;2023-02-15T16:46:40;5.84;66.15
71082;SHT31;58740;50.672;18.690;2023-02-15T16:51:54;5.76;66.33
71082;SHT31;58740;50.672;18.690;2023-02-15T16:54:27;5.76;66.52
71082;SHT31;58740;50.672;18.690;2023-02-15T16:56:58;5.75;66.57
71082;SHT31;58740;50.672;18.690;2023-02-15T16:59:42;5.76;66.71
71082;SHT31;58740;50.672;18.690;2023-02-15T17:02:26;5.73;66.75
71082;SHT31;58740;50.672;18.690;2023-02-15T17:05:18;5.70;66.88
71082;SHT31;58740;50.672;18.690;2023-02-15T17:07:49;5.67;66.99
71082;SHT31;58740;50.672;18.690;2023-02-15T17:13:25;5.59;67.31
71082;SHT31;58740;50.672;18.690;2023-02-15T17:18:30;5.51;67.55
71082;SHT31;58740;50.672;18.690;2023-02-15T17:21:08;5.45;67.73
71082;SHT31;58740;50.672;18.690;2023-02-15T17:23:44;5.40;67.80
71082;SHT31;58740;50.672;18.690;2023-02-15T17:28:55;5.27;68.24
71082;SHT31;58740;50.672;18.690;2023-02-15T17:31:47;5.23;68.43
71082;SHT31;58740;50.672;18.690;2023-02-15T17:43:01;5.16;68.79
71082;SHT31;58740;50.672;18.690;2023-02-15T17:45:34;5.13;68.91
71082;SHT31;58740;50.672;18.690;2023-02-15T17:48:30;5.10;69.00
71082;SHT31;58740;50.672;18.690;2023-02-15T17:51:04;5.06;69.09
71082;SHT31;58740;50.672;18.690;2023-02-15T17:53:34;5.01;69.23
71082;SHT31;58740;50.672;18.690;2023-02-15T17:56:02;4.96;69.31
71082;SHT31;58740;50.672;18.690;2023-02-15T17:58:37;4.91;69.40
71082;SHT31;58740;50.672;18.690;2023-02-15T18:01:07;4.86;69.69
71082;SHT31;58740;50.672;18.690;2023-02-15T18:04:04;4.81;69.77
71082;SHT31;58740;50.672;18.690;2023-02-15T18:06:56;4.78;69.79
71082;SHT31;58740;50.672;18.690;2023-02-15T18:09:43;4.73;69.79
71082;SHT31;58740;50.672;18.690;2023-02-15T18:12:31;4.68;70.07
71082;SHT31;58740;50.672;18.690;2023-02-15T18:15:05;4.67;69.96
71082;SHT31;58740;50.672;18.690;2023-02-15T18:17:42;4.63;70.40
71082;SHT31;58740;50.672;18.690;2023-02-15T18:22:45;4.57;70.17
71082;SHT31;58740;50.672;18.690;2023-02-15T18:25:14;4.50;70.54
71082;SHT31;58740;50.672;18.690;2023-02-15T18:27:45;4.44;70.74
71082;SHT31;58740;50.672;18.690;2023-02-15T18:30:14;4.39;70.52
71082;SHT31;58740;50.672;18.690;2023-02-15T18:32:46;4.33;70.50
71082;SHT31;58740;50.672;18.690;2023-02-15T18:35:18;4.26;70.59
71082;SHT31;58740;50.672;18.690;2023-02-15T18:37:50;4.20;71.04
71082;SHT31;58740;50.672;18.690;2023-02-15T18:40:21;4.18;71.36
71082;SHT31;58740;50.672;18.690;2023-02-15T18:42:52;4.18;71.49
71082;SHT31;58740;50.672;18.690;2023-02-15T18:45:22;4.17;71.69
71082;SHT31;58740;50.672;18.690;2023-02-15T18:47:59;4.16;71.69
71082;SHT31;58740;50.672;18.690;2023-02-15T18:50:27;4.14;71.78
71082;SHT31;58740;50.672;18.690;2023-02-15T18:53:05;4.10;71.85
71082;SHT31;58740;50.672;18.690;2023-02-15T18:55:39;4.07;72.01
71082;SHT31;58740;50.672;18.690;2023-02-15T18:58:08;4.04;72.11
71082;SHT31;58740;50.672;18.690;2023-02-15T19:00:46;3.99;72.18
71082;SHT31;58740;50.672;18.690;2023-02-15T19:03:16;3.93;72.26
71082;SHT31;58740;50.672;18.690;2023-02-15T19:05:44;3.85;72.43
71082;SHT31;58740;50.672;18.690;2023-02-15T19:08:17;3.74;72.66
71082;SHT31;58740;50.672;18.690;2023-02-15T19:10:50;3.67;72.79
71082;SHT31;58740;50.672;18.690;2023-02-15T19:13:18;3.62;73.13
71082;SHT31;58740;50.672;18.690;2023-02-15T19:15:46;3.58;73.22
71082;SHT31;58740;50.672;18.690;2023-02-15T19:18:14;3.59;73.30
71082;SHT31;58740;50.672;18.690;2023-02-15T19:20:43;3.55;73.41
71082;SHT31;58740;50.672;18.690;2023-02-15T19:23:16;3.57;73.43
71082;SHT31;58740;50.672;18.690;2023-02-15T19:25:49;3.57;73.58
71082;SHT31;58740;50.672;18.690;2023-02-15T19:28:29;3.59;73.53
71082;SHT31;58740;50.672;18.690;2023-02-15T19:31:00;3.55;73.52
71082;SHT31;58740;50.672;18.690;2023-02-15T19:33:28;3.52;73.72
71082;SHT31;58740;50.672;18.690;2023-02-15T19:35:56;3.51;73.72
71082;SHT31;58740;50.672;18.690;2023-02-15T19:38:25;3.51;73.89
71082;SHT31;58740;50.672;18.690;2023-02-15T19:41:03;3.55;73.91
71082;SHT31;58740;50.672;18.690;2023-02-15T19:43:35;3.58;73.93
71082;SHT31;58740;50.672;18.690;2023-02-15T19:46:03;3.61;73.82